createdAt,value
2023-04-02T00:01:38.176Z,15.40
2023-04-02T00:04:30.382Z,15.40
2023-04-02T00:07:30.969Z,15.40
2023-04-02T00:10:31.126Z,15.50
2023-04-02T00:13:25.956Z,15.50
2023-04-02T00:16:18.933Z,15.40
2023-04-02T00:19:14.561Z,15.40
2023-04-02T00:22:06.211Z,15.40
2023-04-02T00:24:57.438Z,15.30
2023-04-02T00:27:46.217Z,15.40
2023-04-02T00:30:34.843Z,15.40
2023-04-02T00:33:25.651Z,15.40
2023-04-02T00:36:14.665Z,15.30
2023-04-02T00:39:12.153Z,15.40
2023-04-02T00:42:06.107Z,15.40
2023-04-02T00:44:56.181Z,15.40
2023-04-02T00:47:44.812Z,15.30
2023-04-02T00:50:37.882Z,15.30
2023-04-02T00:53:28.829Z,15.30
2023-04-02T00:56:25.787Z,15.30
2023-04-02T00:59:21.997Z,15.30
2023-04-02T01:02:28.400Z,15.30
2023-04-02T01:05:24.025Z,15.30
2023-04-02T01:08:19.907Z,15.30
2023-04-02T01:11:28.618Z,15.30
2023-04-02T01:14:28.052Z,15.30
2023-04-02T01:17:32.805Z,15.30
2023-04-02T01:21:01.993Z,15.20
2023-04-02T01:24:04.549Z,15.20
2023-04-02T01:26:58.833Z,15.20
2023-04-02T01:29:53.421Z,15.20
2023-04-02T01:32:43.929Z,15.20
2023-04-02T01:35:38.854Z,15.20
2023-04-02T01:38:32.054Z,15.20
2023-04-02T01:41:29.804Z,15.10
2023-04-02T01:44:22.760Z,15.20
2023-04-02T01:47:15.289Z,15.20
2023-04-02T01:50:13.150Z,15.20
2023-04-02T01:53:04.252Z,15.10
2023-04-02T01:55:54.908Z,15.10
2023-04-02T01:58:43.558Z,15.10
2023-04-02T02:01:37.212Z,15.10
2023-04-02T02:04:27.505Z,15.10
2023-04-02T02:07:17.937Z,15.10
2023-04-02T02:10:07.622Z,15.00
2023-04-02T02:12:56.918Z,15.00
2023-04-02T02:15:45.926Z,15.00
2023-04-02T02:18:34.821Z,15.00
2023-04-02T02:21:37.133Z,15.00
2023-04-02T02:24:29.007Z,15.00
2023-04-02T02:27:43.703Z,15.00
2023-04-02T02:30:36.322Z,15.00
2023-04-02T02:33:28.440Z,14.90
2023-04-02T02:36:24.149Z,15.00
2023-04-02T02:39:19.020Z,15.00
2023-04-02T02:42:14.324Z,15.00
2023-04-02T02:45:06.782Z,14.90
2023-04-02T02:47:57.371Z,15.00
2023-04-02T02:50:47.049Z,15.00
2023-04-02T02:53:46.541Z,15.00
2023-04-02T02:56:43.470Z,15.00
2023-04-02T02:59:33.418Z,15.00
2023-04-02T03:02:22.108Z,14.90
2023-04-02T03:05:16.840Z,14.90
2023-04-02T03:08:08.321Z,14.90
2023-04-02T03:11:03.517Z,14.90
2023-04-02T03:13:57.327Z,14.90
2023-04-02T03:16:50.442Z,14.90
2023-04-02T03:19:46.330Z,14.80
2023-04-02T03:22:39.931Z,14.90
2023-04-02T03:25:34.705Z,14.80
2023-04-02T03:28:28.796Z,14.80
2023-04-02T03:31:25.681Z,14.80
2023-04-02T03:34:21.645Z,14.80
2023-04-02T03:37:18.243Z,14.80
2023-04-02T03:40:12.036Z,14.80
2023-04-02T03:43:04.305Z,14.70
2023-04-02T03:45:57.858Z,14.70
2023-04-02T03:48:52.704Z,14.70
2023-04-02T03:51:54.584Z,14.70
2023-04-02T03:54:54.138Z,14.80
2023-04-02T03:57:48.823Z,14.80
2023-04-02T04:00:43.689Z,14.70
2023-04-02T04:03:40.438Z,14.70
2023-04-02T04:06:32.713Z,14.70
2023-04-02T04:09:26.343Z,14.70
2023-04-02T04:12:25.021Z,14.70
2023-04-02T04:15:21.279Z,14.70
2023-04-02T04:18:20.110Z,14.70
2023-04-02T04:21:17.082Z,14.70
2023-04-02T04:24:14.107Z,14.60
2023-04-02T04:27:10.544Z,14.70
2023-04-02T04:30:06.343Z,14.70
2023-04-02T04:32:58.618Z,14.60
2023-04-02T04:35:50.841Z,14.60
2023-04-02T04:38:44.345Z,14.60
2023-04-02T04:41:37.973Z,14.60
2023-04-02T04:44:34.180Z,14.60
2023-04-02T04:47:31.154Z,14.70
2023-04-02T04:50:27.450Z,14.70
2023-04-02T04:53:18.515Z,14.60
2023-04-02T04:56:18.446Z,14.60
2023-04-02T04:59:19.293Z,14.60
2023-04-02T05:02:12.747Z,14.50
2023-04-02T05:05:03.700Z,14.60
2023-04-02T05:07:59.158Z,14.60
2023-04-02T05:10:53.289Z,14.50
2023-04-02T05:13:50.539Z,14.50
2023-04-02T05:16:43.574Z,14.50
2023-04-02T05:19:40.279Z,14.50
2023-04-02T05:22:36.186Z,14.50
2023-04-02T05:25:28.418Z,14.50
2023-04-02T05:28:21.104Z,14.60
2023-04-02T05:31:13.532Z,14.60
2023-04-02T05:34:04.144Z,14.50
2023-04-02T05:36:53.952Z,14.50
2023-04-02T05:39:47.218Z,14.50
2023-04-02T05:42:38.427Z,14.60
2023-04-02T05:45:32.521Z,14.50
2023-04-02T05:48:27.706Z,14.60
2023-04-02T05:51:23.258Z,14.60
2023-04-02T05:54:23.431Z,14.50
2023-04-02T05:57:18.945Z,14.60
2023-04-02T06:00:14.908Z,14.60
2023-04-02T06:03:13.773Z,14.60
2023-04-02T06:06:08.062Z,14.60
2023-04-02T06:09:03.862Z,14.60
2023-04-02T06:11:58.106Z,14.70
2023-04-02T06:14:47.408Z,14.60
2023-04-02T06:17:47.927Z,14.70
2023-04-02T06:20:36.904Z,14.70
2023-04-02T06:23:31.409Z,14.70
2023-04-02T06:26:26.272Z,14.70
2023-04-02T06:29:21.279Z,14.70
2023-04-02T06:32:12.289Z,14.80
2023-04-02T06:35:00.942Z,14.90
2023-04-02T06:37:52.062Z,14.90
2023-04-02T06:40:43.945Z,14.90
2023-04-02T06:43:38.646Z,15.00
2023-04-02T06:46:32.753Z,15.00
2023-04-02T06:49:26.904Z,15.20
2023-04-02T06:52:20.544Z,15.30
2023-04-02T06:55:27.377Z,15.40
2023-04-02T06:58:17.106Z,15.50
2023-04-02T07:01:07.203Z,15.90
2023-04-02T07:03:56.727Z,15.90
2023-04-02T07:06:45.317Z,15.90
2023-04-02T07:09:33.970Z,16.00
2023-04-02T07:12:25.815Z,16.10
2023-04-02T07:15:17.485Z,16.10
2023-04-02T07:18:07.700Z,16.10
2023-04-02T07:20:56.905Z,16.40
2023-04-02T07:23:45.657Z,16.50
2023-04-02T07:26:34.533Z,16.70
2023-04-02T07:29:23.322Z,17.10
2023-04-02T07:32:12.723Z,17.30
2023-04-02T07:35:02.942Z,17.60
2023-04-02T07:37:53.035Z,17.70
2023-04-02T07:40:41.751Z,18.00
2023-04-02T07:43:30.290Z,18.30
2023-04-02T07:46:20.362Z,18.30
2023-04-02T07:49:08.973Z,18.30
2023-04-02T07:51:59.050Z,18.40
2023-04-02T07:54:47.567Z,18.30
2023-04-02T07:57:43.167Z,18.20
2023-04-02T08:00:33.769Z,18.10
2023-04-02T08:03:23.192Z,18.00
2023-04-02T08:06:12.255Z,17.90
2023-04-02T08:09:02.192Z,17.90
2023-04-02T08:11:51.102Z,17.90
2023-04-02T08:14:39.790Z,17.90
2023-04-02T08:17:31.334Z,18.10
2023-04-02T08:20:22.285Z,18.30
2023-04-02T08:23:18.284Z,18.40
2023-04-02T08:26:08.536Z,18.30
2023-04-02T08:28:57.228Z,18.30
2023-04-02T08:31:45.874Z,18.20
2023-04-02T08:34:34.661Z,18.20
2023-04-02T08:37:23.704Z,18.10
2023-04-02T08:40:23.741Z,18.00
2023-04-02T08:43:25.736Z,18.20
2023-04-02T08:46:24.895Z,18.00
2023-04-02T08:49:15.928Z,18.10
2023-04-02T08:52:05.421Z,18.20
2023-04-02T08:54:56.276Z,18.40
2023-04-02T08:57:51.158Z,18.50
2023-04-02T09:00:43.229Z,18.60
2023-04-02T09:03:36.879Z,18.70
2023-04-02T09:06:28.045Z,18.70
2023-04-02T09:09:17.628Z,18.70
2023-04-02T09:12:08.296Z,18.60
2023-04-02T09:15:11.908Z,18.60
2023-04-02T09:18:07.899Z,18.60
2023-04-02T09:20:56.895Z,18.50
2023-04-02T09:23:46.760Z,18.50
2023-04-02T09:26:36.237Z,18.40
2023-04-02T09:29:42.070Z,18.40
2023-04-02T09:32:49.336Z,18.40
2023-04-02T09:35:56.565Z,18.70
2023-04-02T09:38:59.845Z,18.80
2023-04-02T09:42:02.865Z,19.00
2023-04-02T09:44:54.298Z,19.10
2023-04-02T09:47:43.298Z,19.30
2023-04-02T09:50:33.731Z,19.90
2023-04-02T09:53:34.569Z,20.50
2023-04-02T09:56:26.688Z,21.10
2023-04-02T09:59:17.460Z,21.30
2023-04-02T10:02:24.338Z,21.80
2023-04-02T10:05:30.091Z,22.00
2023-04-02T10:08:29.450Z,22.10
2023-04-02T10:11:30.929Z,22.10
2023-04-02T10:14:29.288Z,22.00
2023-04-02T10:17:23.630Z,21.80
2023-04-02T10:20:21.261Z,22.00
2023-04-02T10:23:16.787Z,22.40
2023-04-02T10:26:43.559Z,22.80
2023-04-02T10:29:51.681Z,22.90
2023-04-02T10:32:46.698Z,22.90
2023-04-02T10:35:47.310Z,22.80
2023-04-02T10:38:43.149Z,22.60
2023-04-02T10:41:36.672Z,22.40
2023-04-02T10:44:45.107Z,22.30
2023-04-02T10:47:41.465Z,22.10
2023-04-02T10:50:39.136Z,21.90
2023-04-02T10:53:34.676Z,21.80
2023-04-02T10:56:24.355Z,21.70
2023-04-02T10:59:20.789Z,21.80
2023-04-02T11:02:32.522Z,21.90
2023-04-02T11:05:28.520Z,22.00
2023-04-02T11:08:22.188Z,22.40
2023-04-02T11:11:15.780Z,22.50
2023-04-02T11:14:10.813Z,22.50
2023-04-02T11:17:03.176Z,22.40
2023-04-02T11:19:54.480Z,22.20
2023-04-02T11:22:42.960Z,22.10
2023-04-02T11:25:31.596Z,21.90
2023-04-02T11:28:30.278Z,21.80
2023-04-02T11:31:22.980Z,21.80
2023-04-02T11:34:15.860Z,21.60
2023-04-02T11:37:11.261Z,21.60
2023-04-02T11:40:00.494Z,21.40
2023-04-02T11:42:49.904Z,21.30
2023-04-02T11:45:55.693Z,21.80
2023-04-02T11:48:44.626Z,22.30
2023-04-02T11:51:56.370Z,22.70
2023-04-02T11:55:17.219Z,22.90
2023-04-02T11:58:43.247Z,23.10
2023-04-02T12:01:45.331Z,23.20
2023-04-02T12:05:04.530Z,23.20
2023-04-02T12:08:05.983Z,23.20
2023-04-02T12:10:59.087Z,23.10
2023-04-02T12:13:52.431Z,22.90
2023-04-02T12:16:41.291Z,22.80
2023-04-02T12:19:31.814Z,22.60
2023-04-02T12:22:23.591Z,22.50
2023-04-02T12:25:27.185Z,22.40
2023-04-02T12:28:22.481Z,22.30
2023-04-02T12:31:17.969Z,22.20
2023-04-02T12:34:14.490Z,22.10
2023-04-02T12:37:07.253Z,22.00
2023-04-02T12:39:58.299Z,22.00
2023-04-02T12:42:47.069Z,22.00
2023-04-02T12:45:37.563Z,22.10
2023-04-02T12:48:27.440Z,22.30
2023-04-02T12:54:05.473Z,22.60
2023-04-02T12:56:55.715Z,22.70
2023-04-02T12:59:46.248Z,22.60
2023-04-02T13:02:46.699Z,22.50
2023-04-02T13:05:39.805Z,22.70
2023-04-02T13:08:31.159Z,23.00
2023-04-02T13:11:20.429Z,23.30
2023-04-02T13:14:17.938Z,23.30
2023-04-02T13:17:43.910Z,23.20
2023-04-02T13:20:35.584Z,23.10
2023-04-02T13:23:37.779Z,22.90
2023-04-02T13:26:28.699Z,22.80
2023-04-02T13:29:26.565Z,22.70
2023-04-02T13:32:15.240Z,22.70
2023-04-02T13:35:05.726Z,22.60
2023-04-02T13:37:54.551Z,22.60
2023-04-02T13:40:43.236Z,22.80
2023-04-02T13:43:31.958Z,23.10
2023-04-02T13:46:23.646Z,23.30
2023-04-02T13:49:12.637Z,23.30
2023-04-02T13:52:05.243Z,23.20
2023-04-02T13:54:58.658Z,23.00
2023-04-02T13:57:47.530Z,22.80
2023-04-02T14:00:38.971Z,22.80
2023-04-02T14:03:27.695Z,22.80
2023-04-02T14:06:22.147Z,22.80
2023-04-02T14:09:22.173Z,22.80
2023-04-02T14:12:18.256Z,22.70
2023-04-02T14:15:24.365Z,22.60
2023-04-02T14:18:26.310Z,22.60
2023-04-02T14:21:25.697Z,22.50
2023-04-02T14:24:25.831Z,22.50
2023-04-02T14:27:24.246Z,22.40
2023-04-02T14:30:19.468Z,22.30
2023-04-02T14:33:17.503Z,22.20
2023-04-02T14:36:14.607Z,22.30
2023-04-02T14:39:11.672Z,22.30
2023-04-02T14:42:07.801Z,22.20
2023-04-02T14:45:02.943Z,22.10
2023-04-02T14:47:56.293Z,22.10
2023-04-02T14:50:45.115Z,22.00
2023-04-02T14:53:43.876Z,22.00
2023-04-02T14:56:39.625Z,21.90
2023-04-02T14:59:33.990Z,21.80
2023-04-02T15:02:29.428Z,21.80
2023-04-02T15:05:21.478Z,21.70
2023-04-02T15:08:20.698Z,21.60
2023-04-02T15:11:16.337Z,21.60
2023-04-02T15:14:12.230Z,21.60
2023-04-02T15:17:02.099Z,21.50
2023-04-02T15:19:56.581Z,21.40
2023-04-02T15:22:54.411Z,21.40
2023-04-02T15:25:48.487Z,21.30
2023-04-02T15:28:42.838Z,21.20
2023-04-02T15:31:34.066Z,21.20
2023-04-02T15:34:33.215Z,21.00
2023-04-02T15:37:29.637Z,21.00
2023-04-02T15:40:33.310Z,21.00
2023-04-02T15:43:26.395Z,20.90
2023-04-02T15:46:23.496Z,20.80
2023-04-02T15:49:31.586Z,20.80
2023-04-02T15:52:30.515Z,20.80
2023-04-02T15:55:26.893Z,20.80
2023-04-02T15:58:25.864Z,20.60
2023-04-02T16:01:26.624Z,20.60
2023-04-02T16:04:37.609Z,20.40
2023-04-02T16:07:45.187Z,20.40
2023-04-02T16:10:42.109Z,20.50
2023-04-02T16:13:34.337Z,20.50
2023-04-02T16:16:26.883Z,20.50
2023-04-02T16:19:24.873Z,20.50
2023-04-02T16:22:21.430Z,20.50
2023-04-02T16:25:19.383Z,20.40
2023-04-02T16:28:19.794Z,20.40
2023-04-02T16:31:15.703Z,20.30
2023-04-02T16:34:14.301Z,20.30
2023-04-02T16:37:12.890Z,20.30
2023-04-02T16:40:10.475Z,20.30
2023-04-02T16:43:05.192Z,20.30
2023-04-02T16:46:04.324Z,20.40
2023-04-02T16:49:01.095Z,20.30
2023-04-02T16:51:57.904Z,20.30
2023-04-02T16:54:56.230Z,20.30
2023-04-02T16:57:51.900Z,20.10
2023-04-02T17:00:48.185Z,19.90
2023-04-02T17:04:00.846Z,19.80
2023-04-02T17:06:56.914Z,19.70
2023-04-02T17:09:51.323Z,19.60
2023-04-02T17:12:47.236Z,19.50
2023-04-02T17:15:39.464Z,19.30
2023-04-02T17:18:29.610Z,19.30
2023-04-02T17:21:21.581Z,19.10
2023-04-02T17:24:21.025Z,19.10
2023-04-02T17:27:18.786Z,18.90
2023-04-02T17:30:17.448Z,18.80
2023-04-02T17:33:12.620Z,18.80
2023-04-02T17:36:25.116Z,18.70
2023-04-02T17:39:21.418Z,18.70
2023-04-02T17:42:17.060Z,18.60
2023-04-02T17:45:13.348Z,18.50
2023-04-02T17:48:07.066Z,18.50
2023-04-02T17:51:08.544Z,18.40
2023-04-02T17:54:10.235Z,18.30
2023-04-02T17:57:12.437Z,18.30
2023-04-02T18:00:21.529Z,18.20
2023-04-02T18:03:28.736Z,18.10
2023-04-02T18:06:23.281Z,18.10
2023-04-02T18:09:35.517Z,18.00
2023-04-02T18:12:34.237Z,17.90
2023-04-02T18:15:49.682Z,17.80
2023-04-02T18:18:50.365Z,17.80
2023-04-02T18:21:46.429Z,17.70
2023-04-02T18:24:52.957Z,17.70
2023-04-02T18:28:00.867Z,17.70
2023-04-02T18:30:56.162Z,17.50
2023-04-02T18:34:06.309Z,17.50
2023-04-02T18:37:06.300Z,17.40
2023-04-02T18:40:32.060Z,17.30
2023-04-02T18:43:34.324Z,17.30
2023-04-02T18:46:32.700Z,17.30
2023-04-02T18:49:29.986Z,17.10
2023-04-02T18:52:20.352Z,17.10
2023-04-02T18:55:17.342Z,17.00
2023-04-02T18:58:12.489Z,17.00
2023-04-02T19:01:01.894Z,17.00
2023-04-02T19:03:53.248Z,16.90
2023-04-02T19:06:47.471Z,16.90
2023-04-02T19:09:41.142Z,16.80
2023-04-02T19:12:34.147Z,16.80
2023-04-02T19:15:24.634Z,16.80
2023-04-02T19:18:22.031Z,16.80
2023-04-02T19:21:17.224Z,16.70
2023-04-02T19:24:29.049Z,16.70
2023-04-02T19:27:24.713Z,16.60
2023-04-02T19:30:41.869Z,16.50
2023-04-02T19:33:41.815Z,16.50
2023-04-02T19:36:43.161Z,16.50
2023-04-02T19:40:02.908Z,16.40
2023-04-02T19:42:53.264Z,16.40
2023-04-02T19:45:45.789Z,16.30
2023-04-02T19:48:43.324Z,16.30
2023-04-02T19:51:31.982Z,16.30
2023-04-02T19:54:20.605Z,16.30
2023-04-02T19:57:09.135Z,16.30
2023-04-02T19:59:57.579Z,16.20
2023-04-02T20:02:47.628Z,16.20
2023-04-02T20:05:36.220Z,16.20
2023-04-02T20:08:24.861Z,16.20
2023-04-02T20:11:13.465Z,16.10
2023-04-02T20:14:02.657Z,16.10
2023-04-02T20:16:51.267Z,16.00
2023-04-02T20:19:41.478Z,16.00
2023-04-02T20:22:30.202Z,16.00
2023-04-02T20:25:18.715Z,15.90
2023-04-02T20:28:07.672Z,15.90
2023-04-02T20:31:06.850Z,15.90
2023-04-02T20:33:56.466Z,15.90
2023-04-02T20:36:46.823Z,15.80
2023-04-02T20:39:35.579Z,15.80
2023-04-02T20:42:24.099Z,15.80
2023-04-02T20:45:12.887Z,15.80
2023-04-02T20:48:01.630Z,15.80
2023-04-02T20:50:50.221Z,15.70
2023-04-02T20:53:40.365Z,15.70
2023-04-02T20:56:29.586Z,15.70
2023-04-02T20:59:18.392Z,15.60
2023-04-02T21:02:07.011Z,15.60
2023-04-02T21:04:56.307Z,15.60
2023-04-02T21:07:45.549Z,15.70
2023-04-02T21:10:35.863Z,15.60
2023-04-02T21:13:24.784Z,15.50
2023-04-02T21:16:16.226Z,15.50
2023-04-02T21:19:06.761Z,15.50
2023-04-02T21:21:56.301Z,15.50
2023-04-02T21:24:45.179Z,15.40
2023-04-02T21:27:35.538Z,15.40
2023-04-02T21:30:24.059Z,15.40
2023-04-02T21:33:12.548Z,15.40
2023-04-02T21:36:07.382Z,15.30
2023-04-02T21:38:59.022Z,15.30
2023-04-02T21:41:50.605Z,15.30
2023-04-02T21:44:40.609Z,15.30
2023-04-02T21:47:29.178Z,15.30
2023-04-02T21:50:17.610Z,15.20
2023-04-02T21:53:06.285Z,15.20
2023-04-02T21:56:02.559Z,15.20
2023-04-02T21:58:52.352Z,15.20
2023-04-02T22:01:43.786Z,15.20
2023-04-02T22:04:33.537Z,15.20
2023-04-02T22:07:22.100Z,15.20
2023-04-02T22:10:10.916Z,15.10
2023-04-02T22:12:59.408Z,15.10
2023-04-02T22:15:47.894Z,15.10
2023-04-02T22:18:38.791Z,15.10
2023-04-02T22:21:27.974Z,15.00
2023-04-02T22:24:22.270Z,15.00
2023-04-02T22:27:11.208Z,15.00
2023-04-02T22:29:59.828Z,15.00
2023-04-02T22:32:48.645Z,14.90
2023-04-02T22:35:39.338Z,14.90
2023-04-02T22:38:28.051Z,14.90
2023-04-02T22:41:18.280Z,14.90
2023-04-02T22:44:07.033Z,15.00
2023-04-02T22:46:55.663Z,15.10
2023-04-02T22:49:44.275Z,15.10
2023-04-02T22:52:34.033Z,15.10
2023-04-02T22:55:22.948Z,15.10
2023-04-02T22:58:11.445Z,15.00
2023-04-02T23:01:05.027Z,15.00
2023-04-02T23:03:55.337Z,15.00
2023-04-02T23:06:43.994Z,15.00
2023-04-02T23:09:33.880Z,15.00
2023-04-02T23:12:22.487Z,15.00
2023-04-02T23:15:11.987Z,14.90
2023-04-02T23:18:00.503Z,14.90
2023-04-02T23:20:48.954Z,14.90
2023-04-02T23:23:39.152Z,15.00
2023-04-02T23:26:31.538Z,14.90
2023-04-02T23:29:20.264Z,14.90
2023-04-02T23:32:08.972Z,14.90
2023-04-02T23:34:57.579Z,14.90
2023-04-02T23:37:46.039Z,14.80
2023-04-02T23:40:34.805Z,14.80
2023-04-02T23:43:24.815Z,14.80
2023-04-02T23:46:13.485Z,14.80
2023-04-02T23:49:04.288Z,14.80
2023-04-02T23:51:53.201Z,14.70
2023-04-02T23:54:41.636Z,14.70
2023-04-02T23:57:30.186Z,14.80
